createdAt,value
2017-12-30T00:17:34.906Z,97.90
2017-12-30T00:32:28.488Z,97.00
2017-12-30T00:35:08.161Z,96.90
2017-12-30T01:08:50.666Z,96.80
2017-12-30T01:11:21.157Z,96.90
2017-12-30T01:14:11.238Z,96.90
2017-12-30T01:16:39.087Z,96.80
2017-12-30T01:19:08.272Z,96.60
2017-12-30T01:21:37.934Z,96.50
2017-12-30T01:24:05.526Z,96.50
2017-12-30T01:26:34.058Z,96.40
2017-12-30T01:29:09.870Z,96.60
2017-12-30T01:34:49.312Z,96.50
2017-12-30T02:23:40.692Z,97.70
2017-12-30T02:26:19.074Z,97.80
2017-12-30T02:28:46.596Z,98.00
2017-12-30T02:31:14.119Z,98.10
2017-12-30T02:33:48.578Z,98.20
2017-12-30T02:36:16.095Z,98.20
2017-12-30T02:38:44.691Z,98.20
2017-12-30T02:41:24.382Z,98.20
2017-12-30T02:44:08.529Z,98.10
2017-12-30T02:46:45.236Z,98.10
2017-12-30T02:49:13.969Z,98.10
2017-12-30T02:51:41.981Z,98.10
2017-12-30T02:54:11.671Z,98.20
2017-12-30T02:56:41.711Z,98.30
2017-12-30T02:59:20.382Z,98.30
2017-12-30T03:01:47.986Z,98.30
2017-12-30T03:04:18.967Z,98.40
2017-12-30T03:06:47.946Z,98.30
2017-12-30T03:09:15.568Z,98.60
2017-12-30T03:11:57.975Z,98.40
2017-12-30T03:25:26.239Z,98.80
2017-12-30T03:31:00.681Z,98.90
2017-12-30T03:33:39.838Z,99.00
2017-12-30T03:39:05.771Z,99.00
2017-12-30T03:44:32.612Z,98.90
2017-12-30T03:47:30.073Z,98.90
2017-12-30T04:02:05.796Z,98.90
2017-12-30T04:04:39.798Z,98.90
2017-12-30T04:07:23.908Z,99.00
2017-12-30T04:09:53.321Z,98.80
2017-12-30T04:15:31.170Z,98.80
2017-12-30T04:17:58.850Z,98.80
2017-12-30T04:26:19.795Z,98.60
2017-12-30T04:28:48.243Z,98.50
2017-12-30T04:31:15.716Z,98.50
2017-12-30T04:33:59.581Z,98.40
2017-12-30T04:39:08.057Z,98.30
2017-12-30T04:41:35.875Z,98.00
2017-12-30T04:47:00.122Z,97.90
2017-12-30T04:49:29.113Z,97.90
2017-12-30T04:52:01.712Z,97.80
2017-12-30T04:54:31.576Z,97.80
2017-12-30T04:57:16.273Z,97.70
2017-12-30T04:59:51.870Z,97.60
2017-12-30T05:02:22.965Z,97.70
2017-12-30T05:05:28.003Z,97.60
2017-12-30T05:08:06.845Z,97.60
2017-12-30T06:42:06.297Z,98.20
2017-12-30T06:50:00.305Z,97.90
2017-12-30T06:52:33.137Z,97.80
2017-12-30T06:55:01.861Z,97.70
2017-12-30T06:57:37.978Z,97.70
2017-12-30T07:00:32.804Z,97.40
2017-12-30T07:03:10.989Z,97.20
2017-12-30T07:05:39.468Z,97.20
2017-12-30T07:08:18.034Z,97.10
2017-12-30T07:16:21.919Z,96.80
2017-12-30T07:27:00.898Z,96.90
2017-12-30T07:29:29.151Z,96.90
2017-12-30T07:31:56.837Z,96.90
2017-12-30T07:34:24.511Z,96.80
2017-12-30T07:37:01.970Z,96.70
2017-12-30T08:09:36.619Z,95.80
2017-12-30T08:12:04.167Z,96.00
2017-12-30T08:14:31.635Z,95.90
2017-12-30T08:16:59.085Z,95.90
2017-12-30T08:19:26.580Z,96.00
2017-12-30T08:21:54.118Z,95.90
2017-12-30T08:24:21.571Z,95.90
2017-12-30T08:26:49.034Z,95.90
2017-12-30T08:29:16.512Z,95.90
2017-12-30T08:31:44.052Z,95.90
2017-12-30T08:34:11.510Z,95.80
2017-12-30T08:36:39.732Z,95.40
2017-12-30T08:39:07.368Z,95.40
2017-12-30T08:41:34.858Z,95.40
2017-12-30T08:44:03.337Z,95.30
2017-12-30T08:46:30.784Z,95.30
2017-12-30T08:48:58.522Z,95.50
2017-12-30T08:51:26.043Z,95.30
2017-12-30T08:53:53.551Z,95.30
2017-12-30T08:56:21.083Z,95.40
2017-12-30T08:58:48.601Z,95.40
2017-12-30T09:01:17.443Z,95.20
2017-12-30T09:03:46.333Z,95.10
2017-12-30T09:06:13.813Z,95.10
2017-12-30T09:08:41.349Z,95.10
2017-12-30T09:11:08.797Z,95.20
2017-12-30T09:13:36.244Z,95.20
2017-12-30T09:16:17.935Z,95.20
2017-12-30T09:18:45.393Z,95.20
2017-12-30T09:21:14.361Z,95.10
2017-12-30T09:23:42.711Z,95.10
2017-12-30T09:26:10.177Z,95.10
2017-12-30T09:28:39.957Z,95.10
2017-12-30T09:31:07.817Z,95.10
2017-12-30T09:33:35.282Z,95.00
2017-12-30T09:36:02.729Z,95.00
2017-12-30T09:38:31.105Z,95.00
2017-12-30T09:40:58.548Z,94.90
2017-12-30T09:43:26.847Z,95.10
2017-12-30T09:45:54.296Z,95.10
2017-12-30T09:48:21.756Z,95.10
2017-12-30T09:50:49.241Z,95.10
2017-12-30T09:53:16.721Z,95.00
2017-12-30T09:55:44.283Z,95.10
2017-12-30T09:58:11.753Z,94.90
2017-12-30T10:00:39.212Z,94.90
2017-12-30T10:03:06.708Z,94.80
2017-12-30T10:05:34.238Z,94.90
2017-12-30T10:08:02.462Z,94.90
2017-12-30T10:10:29.933Z,94.90
2017-12-30T10:12:57.551Z,94.80
2017-12-30T10:15:25.003Z,94.40
2017-12-30T10:17:52.490Z,94.40
2017-12-30T10:20:19.974Z,94.30
2017-12-30T10:22:47.415Z,94.10
2017-12-30T10:25:14.890Z,94.00
2017-12-30T10:27:42.349Z,93.90
2017-12-30T10:30:09.852Z,93.80
2017-12-30T10:32:38.079Z,93.70
2017-12-30T10:35:06.345Z,94.00
2017-12-30T10:37:33.834Z,93.90
2017-12-30T10:40:01.362Z,94.10
2017-12-30T10:42:28.878Z,94.20
2017-12-30T10:44:56.385Z,94.30
2017-12-30T10:47:23.921Z,94.40
2017-12-30T10:49:51.533Z,94.50
2017-12-30T10:52:19.247Z,94.60
2017-12-30T10:54:46.739Z,94.50
2017-12-30T10:57:14.211Z,94.50
2017-12-30T10:59:42.473Z,94.70
2017-12-30T11:02:09.936Z,94.70
2017-12-30T11:04:37.387Z,94.90
2017-12-30T11:07:04.850Z,94.90
2017-12-30T11:09:32.804Z,95.10
2017-12-30T11:12:00.279Z,95.50
2017-12-30T11:14:28.308Z,95.40
2017-12-30T11:16:55.823Z,95.50
2017-12-30T11:19:24.058Z,96.00
2017-12-30T11:21:51.518Z,96.00
2017-12-30T11:24:19.177Z,95.80
2017-12-30T11:26:46.638Z,95.90
2017-12-30T11:29:14.144Z,96.10
2017-12-30T11:31:41.612Z,96.20
2017-12-30T11:34:09.253Z,96.40
2017-12-30T11:36:37.734Z,96.40
2017-12-30T11:39:05.954Z,96.50
2017-12-30T11:41:33.408Z,96.50
2017-12-30T11:44:00.857Z,96.70
2017-12-30T11:46:28.565Z,96.90
2017-12-30T11:48:56.041Z,96.60
2017-12-30T11:51:23.639Z,96.60
2017-12-30T11:53:51.202Z,97.00
2017-12-30T11:56:18.781Z,97.30
2017-12-30T11:58:46.257Z,97.40
2017-12-30T12:01:13.952Z,97.20
2017-12-30T12:03:42.381Z,97.40
2017-12-30T12:06:19.162Z,97.30
2017-12-30T12:08:47.443Z,97.80
2017-12-30T12:11:14.953Z,97.80
2017-12-30T12:13:42.449Z,97.90
2017-12-30T12:16:09.911Z,97.70
2017-12-30T12:18:37.393Z,98.00
2017-12-30T12:21:04.841Z,97.90
2017-12-30T12:23:33.101Z,97.70
2017-12-30T12:26:00.559Z,97.70
2017-12-30T12:28:28.038Z,97.60
2017-12-30T12:30:56.294Z,97.60
2017-12-30T12:33:23.769Z,97.60
2017-12-30T12:35:51.310Z,97.80
2017-12-30T12:38:18.785Z,97.80
2017-12-30T12:40:55.423Z,97.70
2017-12-30T12:43:22.916Z,97.60
2017-12-30T12:45:51.178Z,97.70
2017-12-30T12:48:18.637Z,97.60
2017-12-30T12:50:46.247Z,97.60
2017-12-30T12:53:13.718Z,97.80
2017-12-30T12:55:41.214Z,98.00
2017-12-30T12:58:08.699Z,98.10
2017-12-30T13:00:36.197Z,98.40
2017-12-30T13:03:03.669Z,98.50
2017-12-30T13:05:31.139Z,98.60
2017-12-30T13:07:58.599Z,98.50
2017-12-30T13:10:26.060Z,98.50
2017-12-30T13:12:53.527Z,98.60
2017-12-30T13:15:23.418Z,98.80
2017-12-30T13:17:52.199Z,98.70
2017-12-30T13:20:19.689Z,98.80
2017-12-30T13:22:47.912Z,99.00
2017-12-30T13:25:15.402Z,98.90
2017-12-30T13:27:42.879Z,98.90
2017-12-30T13:30:10.350Z,98.90
2017-12-30T13:32:37.806Z,98.90
2017-12-30T13:35:06.136Z,98.90
2017-12-30T13:37:33.658Z,99.10
2017-12-30T13:40:01.423Z,99.30
2017-12-30T13:42:28.996Z,99.70
2017-12-30T13:45:07.470Z,99.60
2017-12-30T13:47:35.072Z,99.60
2017-12-30T13:50:02.563Z,99.60
2017-12-30T13:52:30.812Z,99.50
2017-12-30T13:54:58.282Z,99.50
2017-12-30T13:57:26.088Z,99.80
2017-12-30T13:59:53.770Z,99.60
2017-12-30T14:02:21.266Z,99.80
2017-12-30T14:04:48.734Z,99.80
2017-12-30T14:07:16.386Z,99.90
2017-12-30T14:09:43.887Z,99.90
2017-12-30T14:12:11.563Z,99.90
2017-12-30T14:14:43.764Z,99.90
2017-12-30T14:17:12.758Z,99.90
2017-12-30T14:19:40.243Z,99.90
2017-12-30T14:22:11.626Z,99.90
2017-12-30T14:24:40.178Z,99.90
2017-12-30T14:27:08.413Z,99.90
2017-12-30T14:29:35.930Z,99.90
2017-12-30T14:32:03.384Z,99.90
2017-12-30T14:34:30.911Z,99.90
2017-12-30T14:36:58.654Z,99.90
2017-12-30T14:39:26.210Z,99.90
2017-12-30T14:41:53.750Z,99.90
2017-12-30T14:44:21.287Z,99.90
2017-12-30T14:47:53.863Z,99.90
2017-12-30T14:50:22.562Z,99.90
2017-12-30T14:52:50.205Z,99.90
2017-12-30T14:55:17.671Z,99.90
2017-12-30T14:57:45.108Z,99.90
2017-12-30T15:00:13.376Z,99.90
2017-12-30T15:02:40.833Z,99.90
2017-12-30T15:05:09.935Z,99.90
2017-12-30T15:07:38.180Z,99.90
2017-12-30T15:10:05.641Z,99.90
2017-12-30T15:12:33.125Z,99.90
2017-12-30T15:15:01.384Z,99.90
2017-12-30T15:17:28.837Z,99.90
2017-12-30T15:19:56.305Z,99.90
2017-12-30T15:22:24.557Z,99.90
2017-12-30T15:24:52.187Z,99.90
2017-12-30T15:27:19.727Z,99.90
2017-12-30T15:29:47.218Z,99.90
2017-12-30T15:32:16.587Z,99.90
2017-12-30T15:34:44.857Z,99.90
2017-12-30T15:37:13.092Z,99.90
2017-12-30T15:39:40.551Z,99.90
2017-12-30T15:42:08.025Z,99.90
2017-12-30T15:44:36.253Z,99.90
2017-12-30T15:47:05.215Z,99.90
2017-12-30T15:49:32.719Z,99.90
2017-12-30T15:52:00.236Z,99.90
2017-12-30T15:54:29.403Z,99.90
2017-12-30T15:56:58.478Z,99.90
2017-12-30T15:59:26.494Z,99.90
2017-12-30T16:01:54.019Z,99.90
2017-12-30T16:04:43.490Z,99.90
2017-12-30T16:07:10.983Z,99.90
2017-12-30T16:09:38.428Z,99.90
2017-12-30T16:12:06.690Z,99.90
2017-12-30T16:14:35.034Z,99.90
2017-12-30T16:17:02.772Z,99.90
2017-12-30T16:19:30.833Z,99.90
2017-12-30T16:21:58.749Z,99.90
2017-12-30T16:24:27.265Z,99.90
2017-12-30T16:26:54.776Z,99.90
2017-12-30T16:29:22.451Z,99.90
2017-12-30T16:31:49.941Z,99.90
2017-12-30T16:34:18.278Z,99.90
2017-12-30T16:36:45.757Z,99.90
2017-12-30T16:39:13.230Z,99.90
2017-12-30T16:41:40.711Z,99.90
2017-12-30T16:44:09.929Z,99.90
2017-12-30T16:46:37.401Z,99.90
2017-12-30T16:49:05.038Z,99.90
2017-12-30T16:51:32.518Z,99.90
2017-12-30T16:53:59.978Z,99.90
2017-12-30T16:56:27.670Z,99.90
2017-12-30T16:58:55.143Z,99.90
2017-12-30T17:01:22.634Z,99.90
2017-12-30T17:03:50.076Z,99.90
2017-12-30T17:06:17.782Z,99.90
2017-12-30T17:08:45.277Z,99.90
2017-12-30T17:11:13.553Z,99.90
2017-12-30T17:13:41.772Z,99.90
2017-12-30T17:16:09.223Z,99.90
2017-12-30T17:18:36.734Z,99.90
2017-12-30T17:21:04.971Z,99.90
2017-12-30T17:23:32.434Z,99.90
2017-12-30T17:25:59.896Z,99.90
2017-12-30T17:28:27.350Z,99.90
2017-12-30T17:30:54.798Z,99.90
2017-12-30T17:33:22.280Z,99.90
2017-12-30T17:35:49.729Z,99.90
2017-12-30T17:38:17.197Z,99.90
2017-12-30T17:40:44.638Z,99.90
2017-12-30T17:43:12.097Z,99.90
2017-12-30T17:45:39.575Z,99.90
2017-12-30T17:48:07.036Z,99.90
2017-12-30T17:50:34.626Z,99.90
2017-12-30T17:53:02.105Z,99.90
2017-12-30T17:55:29.571Z,99.90
2017-12-30T17:57:57.045Z,99.90
2017-12-30T18:00:24.528Z,99.90
2017-12-30T18:02:52.029Z,99.80
2017-12-30T18:05:20.515Z,99.90
2017-12-30T18:07:49.236Z,99.70
2017-12-30T18:10:17.692Z,99.30
2017-12-30T18:12:45.149Z,99.40
2017-12-30T18:15:12.655Z,99.50
2017-12-30T18:17:40.161Z,99.30
2017-12-30T18:20:07.629Z,99.30
2017-12-30T18:22:35.085Z,99.10
2017-12-30T18:25:02.701Z,99.20
2017-12-30T18:27:30.454Z,99.30
2017-12-30T18:29:57.949Z,99.30
2017-12-30T18:32:25.401Z,99.30
2017-12-30T18:34:52.919Z,99.70
2017-12-30T18:37:20.378Z,99.80
2017-12-30T18:39:48.234Z,99.40
2017-12-30T18:42:15.701Z,99.50
2017-12-30T18:44:43.917Z,98.10
2017-12-30T18:47:11.477Z,98.10
2017-12-30T18:49:48.468Z,97.30
2017-12-30T18:52:20.811Z,96.90
2017-12-30T18:54:52.309Z,96.70
2017-12-30T18:57:32.732Z,96.10
2017-12-30T19:00:06.152Z,96.50
2017-12-30T19:02:50.711Z,96.30
2017-12-30T19:05:18.628Z,96.30
2017-12-30T19:07:51.266Z,96.40
2017-12-30T19:10:29.095Z,96.50
2017-12-30T19:16:15.506Z,96.40
2017-12-30T19:30:58.415Z,96.60
2017-12-30T19:33:26.748Z,95.60
2017-12-30T19:35:55.918Z,95.60
2017-12-30T19:38:30.323Z,95.50
2017-12-30T19:43:41.270Z,95.20
2017-12-30T19:46:09.463Z,95.30
2017-12-30T19:48:40.429Z,95.30
2017-12-30T19:51:07.944Z,95.30
2017-12-30T19:53:35.592Z,95.30
2017-12-30T20:41:39.348Z,95.40
2017-12-30T20:44:11.377Z,95.80
2017-12-30T20:46:51.127Z,95.90
2017-12-30T20:52:09.906Z,95.90
2017-12-30T20:54:40.881Z,96.10
2017-12-30T20:57:11.560Z,96.00
2017-12-30T20:59:45.623Z,96.30
2017-12-30T21:02:15.590Z,96.30
2017-12-30T21:09:34.653Z,96.30
2017-12-30T21:12:09.334Z,96.40
2017-12-30T21:14:38.012Z,96.50
2017-12-30T21:17:15.595Z,96.60
2017-12-30T21:19:43.136Z,96.60
2017-12-30T21:22:14.635Z,96.40
2017-12-30T21:24:43.964Z,96.40
2017-12-30T21:27:13.407Z,96.40
2017-12-30T21:32:30.458Z,96.30
2017-12-30T21:37:47.181Z,96.30
2017-12-30T21:54:10.804Z,96.90
2017-12-30T21:56:38.298Z,97.00
2017-12-30T21:59:08.074Z,97.10
2017-12-30T22:04:30.438Z,97.20
2017-12-30T22:06:57.925Z,97.10
2017-12-30T22:09:37.787Z,96.90
2017-12-30T22:12:32.576Z,97.00
2017-12-30T22:15:00.089Z,97.00
2017-12-30T22:20:22.959Z,96.80
2017-12-30T22:22:51.616Z,96.80
2017-12-30T22:25:19.091Z,96.80
2017-12-30T22:27:52.078Z,96.80
2017-12-30T22:33:11.014Z,97.10
2017-12-30T22:35:57.865Z,97.10
2017-12-30T22:38:26.455Z,97.10
2017-12-30T22:40:54.913Z,97.20
2017-12-30T22:43:23.254Z,97.40
2017-12-30T22:45:57.104Z,97.50
2017-12-30T22:48:24.992Z,97.60
2017-12-30T22:50:52.471Z,97.50
2017-12-30T22:53:19.974Z,97.50
2017-12-30T22:55:54.434Z,97.40
2017-12-30T22:58:21.953Z,97.40
2017-12-30T23:00:55.837Z,97.40
2017-12-30T23:03:23.485Z,97.30
2017-12-30T23:05:54.019Z,97.40
2017-12-30T23:08:21.850Z,97.40
2017-12-30T23:13:38.040Z,97.50
2017-12-30T23:16:10.467Z,97.40
2017-12-30T23:18:38.050Z,97.30
2017-12-30T23:21:05.603Z,97.30
2017-12-30T23:23:33.061Z,97.20
2017-12-30T23:26:00.566Z,97.30
2017-12-30T23:28:29.437Z,97.30
2017-12-30T23:30:57.268Z,97.30
2017-12-30T23:33:39.687Z,97.30
2017-12-30T23:42:13.664Z,97.10
2017-12-30T23:44:41.152Z,97.10
2017-12-30T23:47:08.626Z,97.20
2017-12-30T23:49:36.181Z,97.00
2017-12-30T23:52:06.654Z,96.70
2017-12-30T23:54:34.292Z,96.60
2017-12-30T23:57:02.746Z,96.40
